Time;durP1;ratioP1;P1;durP2;ratioP2;P2;SDS_P1;SDS_P2;PMS_P1;PMS_P2;Temp;Humidity;BMP_temperature;BMP_pressure;BME280_temperature;BME280_humidity;BME280_pressure;Samples;Min_cycle;Max_cycle;Signal;HPM_P1;HPM_P2
2022/09/05 00:00:03;;;;;;;13.85;9.55;;;;;;;16.29;100.00;100900.09;5055228;28;20373;-79
2022/09/05 00:02:38;;;;;;;12.75;9.52;;;;;;;16.41;100.00;100892.97;5055610;28;20041;-79
2022/09/05 00:05:34;;;;;;;12.63;9.07;;;;;;;16.21;100.00;100894.41;5055072;28;20484;-78
2022/09/05 00:08:26;;;;;;;11.05;8.98;;;;;;;16.12;100.00;100892.41;5055193;28;20041;-78
2022/09/05 00:11:05;;;;;;;12.88;9.27;;;;;;;16.06;100.00;100898.22;5055112;28;20373;-78
2022/09/05 00:14:08;;;;;;;11.40;9.18;;;;;;;15.93;100.00;100901.81;5054812;28;20045;-79
2022/09/05 00:16:53;;;;;;;;;;;;;;;15.97;100.00;100902.44;5055814;28;20048;-78
2022/09/05 00:19:32;;;;;;;13.30;9.55;;;;;;;15.96;100.00;100904.28;5055164;28;19927;-77
2022/09/05 00:22:34;;;;;;;13.75;9.75;;;;;;;15.87;100.00;100899.56;5054889;28;20144;-75
2022/09/05 00:25:52;;;;;;;13.35;9.18;;;;;;;15.83;100.00;100903.47;5054633;28;20064;-74
2022/09/05 00:28:32;;;;;;;11.63;9.80;;;;;;;15.79;100.00;100906.44;5054566;28;20068;-74
2022/09/05 00:31:23;;;;;;;15.65;10.13;;;;;;;15.68;100.00;100902.72;5054654;28;20068;-74
2022/09/05 00:34:26;;;;;;;13.20;9.65;;;;;;;15.60;100.00;100896.13;5054418;28;20460;-75
2022/09/05 00:37:27;;;;;;;12.75;10.00;;;;;;;15.63;100.00;100895.91;5054464;28;20045;-74
2022/09/05 00:40:12;;;;;;;13.23;9.45;;;;;;;15.66;100.00;100895.72;5054530;28;20499;-74
2022/09/05 00:42:49;;;;;;;15.48;10.10;;;;;;;15.52;100.00;100887.72;5054490;28;20049;-76
2022/09/05 00:45:26;;;;;;;13.43;10.05;;;;;;;15.53;100.00;100887.59;5054196;28;20426;-74
2022/09/05 00:47:59;;;;;;;11.35;9.43;;;;;;;15.49;100.00;100894.19;5054404;28;20071;-75
2022/09/05 00:50:37;;;;;;;12.50;9.80;;;;;;;15.46;100.00;100889.03;5054586;28;20399;-74
2022/09/05 00:53:14;;;;;;;12.70;9.45;;;;;;;15.41;100.00;100893.84;5054080;28;20514;-74
2022/09/05 00:55:57;;;;;;;12.25;9.55;;;;;;;15.45;100.00;100896.25;5054133;28;20497;-74
2022/09/05 00:58:39;;;;;;;;;;;;;;;15.43;100.00;100897.28;5054809;28;20499;-74
2022/09/05 01:01:25;;;;;;;11.15;9.25;;;;;;;15.54;100.00;100896.53;5053895;28;19921;-74
2022/09/05 01:04:09;;;;;;;14.55;9.68;;;;;;;15.69;100.00;100901.72;5053490;28;20487;-75
2022/09/05 01:06:56;;;;;;;11.98;8.82;;;;;;;15.63;100.00;100904.00;5052841;28;20543;-74
2022/09/05 01:09:43;;;;;;;11.65;9.13;;;;;;;15.48;100.00;100902.38;5054164;28;20048;-74
2022/09/05 01:12:23;;;;;;;12.35;8.98;;;;;;;15.46;100.00;100895.28;5053819;28;20502;-74
2022/09/05 01:15:06;;;;;;;12.20;9.27;;;;;;;15.45;100.00;100901.63;5053585;28;20135;-74
2022/09/05 01:17:38;;;;;;;;;;;;;;;15.32;100.00;100898.06;5054369;28;20048;-74
2022/09/05 01:20:28;;;;;;;10.85;8.30;;;;;;;15.27;100.00;100894.84;5053584;28;19928;-74
2022/09/05 01:23:29;;;;;;;10.70;8.65;;;;;;;15.27;100.00;100889.47;5053397;28;20098;-74
2022/09/05 01:26:15;;;;;;;11.48;9.13;;;;;;;15.16;100.00;100886.66;5053486;28;20175;-74
2022/09/05 01:28:57;;;;;;;11.13;8.93;;;;;;;15.28;100.00;100890.31;5053787;28;20443;-74
2022/09/05 01:32:02;;;;;;;12.10;8.15;;;;;;;15.31;100.00;100885.56;5053742;28;20052;-74
2022/09/05 01:34:38;;;;;;;10.55;8.68;;;;;;;15.22;100.00;100890.72;5053828;28;20065;-74
2022/09/05 01:37:14;;;;;;;11.60;9.23;;;;;;;15.07;100.00;100887.28;5053250;28;20454;-74
2022/09/05 01:40:15;;;;;;;12.65;8.63;;;;;;;15.09;100.00;100893.41;5052043;28;20060;-74
2022/09/05 01:43:01;;;;;;;11.40;8.65;;;;;;;15.12;100.00;100890.50;5053410;28;20044;-74
2022/09/05 01:45:45;;;;;;;10.52;8.85;;;;;;;15.11;100.00;100889.66;5053298;28;20048;-74
2022/09/05 01:48:30;;;;;;;11.15;8.35;;;;;;;15.21;100.00;100889.88;5052708;28;20061;-74
2022/09/05 01:51:12;;;;;;;13.13;8.30;;;;;;;15.28;100.00;100884.94;5053105;28;20400;-75
2022/09/05 01:54:14;;;;;;;11.70;8.38;;;;;;;15.03;100.00;100889.31;5053170;28;20101;-74
2022/09/05 01:57:08;;;;;;;12.20;9.02;;;;;;;14.88;100.00;100896.59;5052728;28;20053;-74
2022/09/05 01:59:46;;;;;;;11.32;8.60;;;;;;;14.98;100.00;100893.31;5053361;28;20470;-73
2022/09/05 02:02:36;;;;;;;12.52;8.63;;;;;;;14.97;100.00;100891.59;5036980;28;20076;-73
2022/09/05 02:05:39;;;;;;;10.15;8.07;;;;;;;14.99;100.00;100895.00;5033074;28;20136;-74
2022/09/05 02:08:50;;;;;;;11.13;8.38;;;;;;;14.86;100.00;100895.88;5052760;28;20589;-74
2022/09/05 02:11:36;;;;;;;10.73;8.60;;;;;;;15.05;100.00;100889.19;5052875;28;20075;-74
2022/09/05 02:14:18;;;;;;;11.35;8.52;;;;;;;15.06;100.00;100897.19;5052031;28;20045;-74
2022/09/05 02:17:14;;;;;;;9.98;7.60;;;;;;;15.19;100.00;100891.81;5053075;28;20041;-74
2022/09/05 02:20:15;;;;;;;11.63;8.23;;;;;;;14.93;100.00;100895.44;5052879;28;20487;-74
2022/09/05 02:23:04;;;;;;;13.27;8.43;;;;;;;14.97;100.00;100880.84;5052842;28;20060;-74
2022/09/05 02:25:58;;;;;;;10.27;7.63;;;;;;;14.97;100.00;100891.59;5052671;28;20129;-74
2022/09/05 02:28:36;;;;;;;10.32;8.27;;;;;;;14.86;100.00;100892.28;5053074;28;20041;-75
2022/09/05 02:31:12;;;;;;;10.07;8.38;;;;;;;15.01;100.00;100898.44;5052639;28;20450;-74
2022/09/05 02:33:54;;;;;;;10.57;8.00;;;;;;;14.87;100.00;100886.84;5053223;28;20033;-73
2022/09/05 02:36:37;;;;;;;10.23;8.18;;;;;;;14.96;100.00;100887.16;5053092;28;20053;-74
2022/09/05 02:39:20;;;;;;;11.32;8.60;;;;;;;15.10;100.00;100893.31;5052601;28;20041;-75
2022/09/05 02:42:23;;;;;;;10.43;8.35;;;;;;;14.95;100.00;100898.84;5052395;28;20049;-75
2022/09/05 02:45:21;;;;;;;11.43;7.88;;;;;;;15.02;100.00;100895.66;5052529;28;20053;-75
2022/09/05 02:48:04;;;;;;;12.07;8.20;;;;;;;14.98;100.00;100898.66;5052762;28;20049;-76
2022/09/05 02:50:58;;;;;;;11.20;7.68;;;;;;;14.80;100.00;100893.56;5052689;28;20096;-76
2022/09/05 02:53:50;;;;;;;;;;;;;;;14.80;100.00;100900.78;5052918;28;20041;-75
2022/09/05 02:56:53;;;;;;;10.15;7.82;;;;;;;14.79;100.00;100901.75;5052559;28;19925;-75
2022/09/05 03:00:11;;;;;;;11.27;7.88;;;;;;;14.78;100.00;100902.72;5052709;28;20041;-73
2022/09/05 03:03:05;;;;;;;8.82;7.63;;;;;;;14.70;100.00;100900.53;5052844;28;20037;-74
2022/09/05 03:05:40;;;;;;;9.55;7.57;;;;;;;14.83;100.00;100906.78;5052666;28;20043;-74
2022/09/05 03:08:19;;;;;;;12.05;8.35;;;;;;;14.56;100.00;100914.84;5052511;28;20048;-74
2022/09/05 03:11:19;;;;;;;10.23;7.82;;;;;;;14.53;100.00;100909.69;5052724;28;20045;-74
2022/09/05 03:14:32;;;;;;;12.18;7.63;;;;;;;14.59;100.00;100903.09;5052632;28;20076;-73
2022/09/05 03:17:30;;;;;;;12.35;7.85;;;;;;;14.56;100.00;100906.81;5033378;28;20056;-77
2022/09/05 03:20:26;;;;;;;10.70;7.82;;;;;;;14.63;100.00;100907.28;5050441;28;20073;-77
2022/09/05 03:23:27;;;;;;;10.50;7.60;;;;;;;14.67;100.00;100905.22;5052094;28;20053;-77
2022/09/05 03:26:38;;;;;;;11.10;7.85;;;;;;;14.42;100.00;100906.84;5053963;28;20551;-77
2022/09/05 03:30:07;;;;;;;10.25;8.00;;;;;;;14.31;100.00;100907.53;5051080;28;20048;-77
2022/09/05 03:33:05;;;;;;;10.95;8.13;;;;;;;14.46;100.00;100912.88;5055626;28;20041;-77
2022/09/05 03:36:12;;;;;;;10.27;7.55;;;;;;;14.56;100.00;100909.50;5055779;28;20053;-77
2022/09/05 03:39:20;;;;;;;10.45;7.97;;;;;;;14.66;100.00;100925.00;5055873;28;20045;-77
2022/09/05 03:42:14;;;;;;;11.07;8.23;;;;;;;14.53;100.00;100923.13;5055718;28;20098;-77
2022/09/05 03:45:04;;;;;;;11.52;8.05;;;;;;;14.45;100.00;100922.75;5054433;28;20064;-77
2022/09/05 03:47:59;;;;;;;11.65;8.40;;;;;;;14.45;100.00;100929.97;5055591;28;20057;-77
2022/09/05 03:50:59;;;;;;;12.32;8.10;;;;;;;14.44;100.00;100925.53;5055384;28;20123;-77
2022/09/05 03:54:29;;;;;;;11.32;7.88;;;;;;;14.34;100.00;100933.31;5055447;28;20502;-77
2022/09/05 03:57:43;;;;;;;11.13;8.07;;;;;;;14.16;100.00;100938.03;5054954;28;20056;-78
2022/09/05 04:00:21;;;;;;;10.40;8.32;;;;;;;14.13;100.00;100940.94;5055170;28;20056;-77
2022/09/05 04:03:13;;;;;;;12.15;8.55;;;;;;;14.13;100.00;100946.28;5055382;28;20041;-77
2022/09/05 04:06:11;;;;;;;10.60;7.80;;;;;;;14.08;100.00;100940.34;5055149;28;20051;-78
2022/09/05 04:09:05;;;;;;;11.68;8.40;;;;;;;14.13;100.00;100951.66;5054912;28;20501;-77
2022/09/05 04:11:39;;;;;;;9.60;7.70;;;;;;;14.44;100.00;100947.00;5055168;28;20041;-76
2022/09/05 04:14:11;;;;;;;12.15;8.05;;;;;;;14.61;100.00;100946.78;5054948;28;20395;-75
2022/09/05 04:16:50;;;;;;;13.75;8.25;;;;;;;14.43;100.00;100956.88;5054962;28;20053;-74
2022/09/05 04:19:27;;;;;;;10.32;7.38;;;;;;;14.37;100.00;100956.41;5054692;28;20505;-78
2022/09/05 04:22:05;;;;;;;13.57;7.75;;;;;;;14.42;100.00;100948.91;5055006;28;20120;-78
2022/09/05 04:24:44;;;;;;;10.55;7.72;;;;;;;14.39;100.00;100962.56;5055047;28;20055;-78
2022/09/05 04:27:31;;;;;;;10.60;8.02;;;;;;;14.39;100.00;100959.88;5054726;28;20439;-80
2022/09/05 04:30:00;;;;;;;10.13;7.75;;;;;;;14.50;100.00;100970.78;5054824;28;20067;-82
2022/09/05 04:32:58;;;;;;;11.18;7.70;;;;;;;14.59;100.00;100973.75;5054819;28;20407;-76
2022/09/05 04:35:33;;;;;;;11.98;7.75;;;;;;;14.63;100.00;100978.91;5054562;28;20049;-77
2022/09/05 04:38:10;;;;;;;11.98;8.02;;;;;;;14.64;100.00;100978.78;5053853;28;20053;-77
2022/09/05 04:40:42;;;;;;;11.15;8.32;;;;;;;14.71;100.00;100977.44;5054880;28;20045;-82
2022/09/05 04:43:20;;;;;;;9.75;8.00;;;;;;;14.68;100.00;100971.41;5054686;28;20395;-83
2022/09/05 04:45:53;;;;;;;10.48;8.15;;;;;;;14.67;100.00;100977.72;5054850;28;20041;-84
2022/09/05 04:48:28;;;;;;;11.07;7.82;;;;;;;14.84;100.00;100982.84;5054176;28;20048;-84
2022/09/05 04:51:05;;;;;;;12.30;8.40;;;;;;;14.97;100.00;100982.91;5054261;28;20395;-77
2022/09/05 04:54:16;;;;;;;10.52;7.43;;;;;;;15.02;100.00;100988.81;5054120;28;20110;-77
2022/09/05 04:56:49;;;;;;;9.50;8.00;;;;;;;15.04;100.00;100986.88;5040400;28;20144;-76
2022/09/05 04:59:24;;;;;;;12.40;8.38;;;;;;;15.15;100.00;100987.91;5054007;28;20432;-76
2022/09/05 05:02:21;;;;;;;11.35;7.90;;;;;;;15.15;100.00;100992.41;5053906;28;20499;-78
2022/09/05 05:05:19;;;;;;;13.48;8.77;;;;;;;15.20;100.00;100990.28;5053777;28;20045;-77
2022/09/05 05:08:17;;;;;;;10.90;8.75;;;;;;;15.27;100.00;100996.97;5053373;28;20052;-76
2022/09/05 05:11:11;;;;;;;11.13;8.15;;;;;;;15.31;100.00;100998.47;5053847;28;20048;-73
2022/09/05 05:14:01;;;;;;;;;;;;;;;15.48;100.00;101001.84;5053953;28;20056;-74
2022/09/05 05:16:55;;;;;;;14.55;7.90;;;;;;;15.69;100.00;101008.44;5053455;28;19924;-75
2022/09/05 05:19:45;;;;;;;10.35;7.78;;;;;;;15.75;100.00;101002.66;5053771;28;20045;-75
2022/09/05 05:22:38;;;;;;;12.18;7.93;;;;;;;15.82;100.00;101006.63;5053490;28;20048;-75
2022/09/05 05:25:12;;;;;;;8.68;7.78;;;;;;;15.94;100.00;101008.47;5053792;28;20083;-75
2022/09/05 05:27:46;;;;;;;11.60;7.68;;;;;;;16.13;100.00;101004.47;5053683;28;20115;-76
2022/09/05 05:30:23;;;;;;;;;;;;;;;16.27;100.00;101004.31;5053675;28;20432;-77
2022/09/05 05:32:53;;;;;;;10.32;7.68;;;;;;;16.28;100.00;101011.44;5053451;28;19921;-76
2022/09/05 05:35:28;;;;;;;15.30;7.93;;;;;;;16.39;100.00;101010.66;5052167;28;20051;-78
2022/09/05 05:38:08;;;;;;;11.90;8.30;;;;;;;16.49;100.00;101006.31;5053596;28;20048;-77
2022/09/05 05:40:38;;;;;;;10.70;7.82;;;;;;;16.50;100.00;101008.91;5053500;28;20041;-74
2022/09/05 05:43:22;;;;;;;9.80;7.30;;;;;;;16.73;100.00;101011.78;5053299;28;20124;-74
2022/09/05 05:45:56;;;;;;;12.57;8.13;;;;;;;16.80;100.00;101013.06;5053453;28;20048;-75
2022/09/05 05:48:32;;;;;;;12.25;7.85;;;;;;;17.25;100.00;101011.41;5052658;28;20155;-74
2022/09/05 05:51:18;;;;;;;10.52;7.13;;;;;;;17.36;100.00;101014.16;5053482;28;20055;-72
2022/09/05 05:54:17;;;;;;;8.60;7.07;;;;;;;17.50;100.00;101012.25;5053239;28;20098;-71
2022/09/05 05:57:22;;;;;;;10.70;7.05;;;;;;;17.70;100.00;101008.91;5051955;28;20049;-71
2022/09/05 06:00:04;;;;;;;10.23;6.88;;;;;;;17.98;100.00;101013.00;5048325;28;20072;-70
2022/09/05 06:03:24;;;;;;;13.85;6.63;;;;;;;17.87;100.00;101010.28;5051525;28;20445;-69
2022/09/05 06:06:08;;;;;;;10.73;6.72;;;;;;;17.77;100.00;101006.59;5052733;28;20037;-69
2022/09/05 06:08:50;;;;;;;10.70;6.93;;;;;;;18.12;100.00;101010.03;5054450;28;20060;-70
2022/09/05 06:12:06;;;;;;;8.60;6.50;;;;;;;18.29;100.00;101006.00;5051004;28;20052;-71
2022/09/05 06:15:20;;;;;;;9.07;6.00;;;;;;;18.55;100.00;101012.84;5032539;28;20064;-73
2022/09/05 06:18:46;;;;;;;10.45;6.03;;;;;;;18.67;100.00;101011.00;5048181;28;20074;-72
2022/09/05 06:21:52;;;;;;;10.13;6.00;;;;;;;19.39;100.00;101002.28;5045451;28;20045;-73
2022/09/05 06:25:15;;;;;;;8.30;5.10;;;;;;;19.56;100.00;101000.88;5052888;28;20044;-73
2022/09/05 06:27:57;;;;;;;7.60;4.85;;;;;;;20.49;100.00;101009.78;5052236;28;20041;-73
2022/09/05 06:30:53;;;;;;;7.00;4.55;;;;;;;20.94;100.00;101003.91;5052595;28;20132;-72
2022/09/05 06:33:57;;;;;;;9.20;5.38;;;;;;;20.69;100.00;101012.53;5052641;28;20450;-72
2022/09/05 06:36:42;;;;;;;6.55;4.75;;;;;;;20.79;100.00;101013.44;5049919;28;20045;-81
2022/09/05 06:39:16;;;;;;;7.40;5.43;;;;;;;20.86;100.00;101006.47;5036528;28;20053;-75
2022/09/05 06:42:05;;;;;;;11.10;5.68;;;;;;;20.68;100.00;101018.97;5032354;28;20053;-76
2022/09/05 06:45:03;;;;;;;9.88;5.55;;;;;;;20.65;100.00;101013.81;5031277;28;20048;-74
2022/09/05 06:47:58;;;;;;;8.43;5.15;;;;;;;21.06;100.00;101012.75;5010677;28;20510;-72
2022/09/05 06:50:37;;;;;;;9.20;5.03;;;;;;;21.66;100.00;101014.34;5032260;28;20129;-71
2022/09/05 06:53:48;;;;;;;8.32;5.20;;;;;;;21.72;100.00;101007.47;5038790;28;20406;-70
2022/09/05 06:56:36;;;;;;;11.05;5.38;;;;;;;21.78;100.00;101009.59;5050751;28;20506;-74
2022/09/05 06:59:34;;;;;;;7.88;4.78;;;;;;;21.19;100.00;101009.75;5051209;28;20053;-75
2022/09/05 07:02:13;;;;;;;6.80;4.80;;;;;;;21.00;100.00;101006.03;5039012;28;20131;-72
2022/09/05 07:04:44;;;;;;;11.88;5.00;;;;;;;20.81;100.00;101008.72;5054894;28;20475;-76
2022/09/05 07:07:38;;;;;;;12.10;4.78;;;;;;;20.85;100.00;101011.03;5056174;28;20116;-78
2022/09/05 07:10:21;;;;;;;11.90;4.95;;;;;;;20.80;100.00;101017.84;5055040;28;20410;-78
2022/09/05 07:13:14;;;;;;;8.47;5.00;;;;;;;20.72;100.00;101021.25;5056114;28;20565;-78
2022/09/05 07:15:53;;;;;;;9.43;5.00;;;;;;;20.60;100.00;101027.78;5054874;28;20049;-78
2022/09/05 07:18:30;;;;;;;9.05;4.95;;;;;;;20.67;100.00;101019.97;5054829;28;20508;-78
2022/09/05 07:21:06;;;;;;;9.75;5.07;;;;;;;20.71;100.00;101021.41;5055987;28;20500;-78
2022/09/05 07:23:50;;;;;;;8.82;5.10;;;;;;;20.39;100.00;101017.00;5055003;28;20056;-78
2022/09/05 07:26:41;;;;;;;10.10;4.97;;;;;;;20.49;100.00;101020.63;5055913;28;20047;-78
2022/09/05 07:29:25;;;;;;;7.15;4.90;;;;;;;20.68;100.00;101025.25;5055783;28;20502;-78
2022/09/05 07:31:59;;;;;;;6.57;4.82;;;;;;;20.56;100.00;101021.78;5056009;28;20112;-78
2022/09/05 07:34:30;;;;;;;8.93;5.25;;;;;;;20.53;100.00;101022.06;5054406;28;20136;-78
2022/09/05 07:37:04;;;;;;;7.40;4.53;;;;;;;20.58;100.00;101019.81;5055850;28;20041;-78
2022/09/05 07:39:47;;;;;;;8.25;5.18;;;;;;;20.67;100.00;101022.69;5054528;28;20522;-77
2022/09/05 07:42:24;;;;;;;8.10;5.00;;;;;;;20.64;100.00;101022.94;5054260;28;20071;-78
2022/09/05 07:44:56;;;;;;;10.82;5.38;;;;;;;20.66;100.00;101015.53;5055558;28;20491;-78
2022/09/05 07:47:30;;;;;;;8.17;5.50;;;;;;;20.65;100.00;101019.22;5055205;28;20561;-78
2022/09/05 07:50:05;;;;;;;9.85;4.85;;;;;;;20.73;100.00;101016.69;5054300;28;20079;-78
2022/09/05 07:52:56;;;;;;;8.55;5.00;;;;;;;20.82;100.00;101019.41;5055602;28;20041;-78
2022/09/05 07:55:49;;;;;;;9.63;5.18;;;;;;;20.95;100.00;101015.59;5055395;28;20041;-78
2022/09/05 07:58:43;;;;;;;9.20;5.20;;;;;;;21.02;100.00;101016.72;5055250;28;20053;-78
2022/09/05 08:01:13;;;;;;;7.78;4.25;;;;;;;21.03;100.00;101023.88;5055587;28;20045;-77
2022/09/05 08:03:43;;;;;;;9.57;4.70;;;;;;;21.08;100.00;101010.75;5054909;28;20045;-78
2022/09/05 08:06:18;;;;;;;7.82;4.38;;;;;;;21.12;100.00;101012.16;5053845;28;20092;-77
2022/09/05 08:09:14;;;;;;;9.98;4.85;;;;;;;21.24;100.00;101015.63;5053395;28;20076;-78
2022/09/05 08:12:10;;;;;;;8.07;4.75;;;;;;;21.19;100.00;101009.75;5053008;28;20388;-78
2022/09/05 08:14:51;;;;;;;6.82;4.63;;;;;;;21.32;100.00;101018.50;5055081;28;20479;-77
2022/09/05 08:17:22;;;;;;;7.72;4.57;;;;;;;21.40;100.00;101013.22;5055268;28;20099;-78
2022/09/05 08:20:16;;;;;;;8.65;4.70;;;;;;;21.38;100.00;101012.50;5053860;28;20057;-78
2022/09/05 08:22:56;;;;;;;8.60;4.38;;;;;;;21.26;100.00;101019.03;5054999;28;20099;-77
2022/09/05 08:25:31;;;;;;;7.18;3.78;;;;;;;21.34;100.00;101016.50;5054642;28;20442;-77
2022/09/05 08:28:23;;;;;;;6.65;3.65;;;;;;;21.43;100.00;101016.50;5054462;28;20051;-78
2022/09/05 08:31:06;;;;;;;5.97;3.35;;;;;;;21.60;100.00;101012.19;5054565;28;20098;-77
2022/09/05 08:33:37;;;;;;;7.72;3.53;;;;;;;21.71;100.00;101003.03;5054140;28;20040;-78
2022/09/05 08:36:10;;;;;;;6.95;3.60;;;;;;;21.66;100.00;101005.34;5054698;28;20059;-78
2022/09/05 08:38:42;;;;;;;6.25;3.65;;;;;;;21.58;100.00;101008.75;5054442;28;20060;-78
2022/09/05 08:41:17;;;;;;;6.97;3.90;;;;;;;21.67;100.00;101004.31;5053409;28;20087;-78
2022/09/05 08:44:02;;;;;;;7.10;3.83;;;;;;;21.65;100.00;101009.06;5054361;28;20048;-78
2022/09/05 08:46:54;;;;;;;5.80;3.55;;;;;;;21.80;100.00;101006.72;5052949;28;20052;-78
2022/09/05 08:49:35;;;;;;;5.40;3.80;;;;;;;21.76;100.00;101006.16;5054351;28;20080;-78
2022/09/05 08:52:27;;;;;;;7.55;3.30;;;;;;;;;;5053038;28;20056;-78
2022/09/05 08:55:10;;;;;;;5.77;3.57;;;;;;;21.82;100.00;101005.59;5052934;28;20049;-77
2022/09/05 08:58:09;;;;;;;8.75;3.72;;;;;;;21.87;100.00;101010.56;5052643;28;20634;-77
2022/09/05 09:00:45;;;;;;;6.75;3.53;;;;;;;21.81;100.00;101003.00;5052480;28;20053;-77
2022/09/05 09:03:32;;;;;;;5.90;3.50;;;;;;;21.98;100.00;100996.81;5052633;28;20468;-78
2022/09/05 09:06:32;;;;;;;4.95;3.22;;;;;;;21.94;100.00;100993.53;5053261;28;20076;-76
2022/09/05 09:09:17;;;;;;;4.85;3.40;;;;;;;22.36;100.00;100995.81;5053973;28;20037;-76
2022/09/05 09:11:53;;;;;;;8.73;3.72;;;;;;;22.35;100.00;100990.56;5053796;28;20128;-77
2022/09/05 09:14:37;;;;;;;7.78;3.80;;;;;;;22.39;100.00;100990.13;5052716;28;20450;-79
2022/09/05 09:17:35;;;;;;;5.00;3.65;;;;;;;22.27;100.00;100984.00;5054324;28;20468;-79
2022/09/05 09:20:15;;;;;;;5.75;3.70;;;;;;;22.31;100.00;100987.28;5047969;28;20057;-77
2022/09/05 09:22:55;;;;;;;8.57;3.58;;;;;;;22.25;100.00;100985.16;5053304;28;20049;-76
2022/09/05 09:25:28;;;;;;;7.07;4.10;;;;;;;22.44;100.00;100984.22;5052083;28;20072;-78
2022/09/05 09:28:25;;;;;;;6.00;4.45;;;;;;;22.54;100.00;100974.13;5053349;28;20041;-79
2022/09/05 09:31:21;;;;;;;6.35;3.85;;;;;;;22.68;100.00;100976.34;5053671;28;20499;-78
2022/09/05 09:34:04;;;;;;;7.20;4.13;;;;;;;22.66;100.00;100978.34;5053539;28;20041;-79
2022/09/05 09:37:01;;;;;;;8.82;4.07;;;;;;;22.51;100.00;100979.88;5053325;28;20545;-79
2022/09/05 09:39:45;;;;;;;6.68;3.72;;;;;;;22.45;100.00;100977.75;5051918;28;20045;-78
2022/09/05 09:42:29;;;;;;;6.88;4.35;;;;;;;22.63;100.00;100973.22;5052158;28;20049;-78
2022/09/05 09:45:28;;;;;;;4.82;3.65;;;;;;;22.78;100.00;100971.69;5053141;28;20068;-77
2022/09/05 09:48:45;;;;;;;8.15;3.90;;;;;;;22.75;100.00;100973.84;5053159;28;20053;-78
2022/09/05 09:51:31;;;;;;;6.25;4.00;;;;;;;22.78;100.00;100979.88;5051761;28;20053;-79
2022/09/05 09:54:16;;;;;;;7.93;3.92;;;;;;;22.92;100.00;100977.66;5053124;28;20041;-78
2022/09/05 09:57:19;;;;;;;6.45;4.28;;;;;;;22.90;100.00;100975.09;5051635;28;20056;-78
2022/09/05 10:00:06;;;;;;;6.03;4.00;;;;;;;22.80;100.00;100969.69;5053064;28;20498;-78
2022/09/05 10:03:16;;;;;;;5.55;3.80;;;;;;;23.03;100.00;100969.25;5052675;28;20033;-79
2022/09/05 10:06:37;;;;;;;5.57;4.13;;;;;;;23.18;100.00;100964.13;5051854;28;20049;-76
2022/09/05 10:09:37;;;;;;;7.88;3.50;;;;;;;23.33;100.00;100966.13;5052683;28;20037;-78
2022/09/05 10:13:01;;;;;;;9.75;4.22;;;;;;;23.21;100.00;100956.50;5052755;28;20391;-79
2022/09/05 10:15:56;;;;;;;6.25;4.13;;;;;;;23.37;100.00;100958.50;5052955;28;20045;-78
2022/09/05 10:18:36;;;;;;;7.60;4.40;;;;;;;23.30;100.00;100951.97;5052822;28;20068;-78
2022/09/05 10:21:42;;;;;;;6.80;3.80;;;;;;;23.58;100.00;100955.41;5053068;28;20059;-78
2022/09/05 10:24:47;;;;;;;5.95;3.75;;;;;;;23.55;93.29;100955.75;5032655;28;20056;-78
2022/09/05 10:27:37;;;;;;;7.82;3.80;;;;;;;23.76;84.14;100953.53;5051793;28;20487;-78
2022/09/05 10:30:17;;;;;;;6.35;3.83;;;;;;;23.85;77.97;100949.84;5051907;28;20128;-78
2022/09/05 10:33:26;;;;;;;6.32;3.67;;;;;;;23.84;70.95;100942.69;5051404;28;20045;-79
2022/09/05 10:36:23;;;;;;;5.55;4.07;;;;;;;23.93;64.93;100947.19;5055003;28;20049;-79
2022/09/05 10:39:03;;;;;;;5.07;3.53;;;;;;;24.07;63.35;100942.13;5056664;28;20044;-78
2022/09/05 10:41:43;;;;;;;6.85;3.60;;;;;;;24.16;57.99;100938.41;5056536;28;20411;-78
2022/09/05 10:44:14;;;;;;;5.28;4.03;;;;;;;24.23;57.72;100943.06;5055546;28;20056;-78
2022/09/05 10:46:53;;;;;;;5.10;3.75;;;;;;;24.21;56.57;100949.66;5056336;28;20079;-78
2022/09/05 10:49:24;;;;;;;8.02;4.10;;;;;;;24.27;56.59;100938.13;5056332;28;20568;-78
2022/09/05 10:52:08;;;;;;;6.00;3.83;;;;;;;24.43;55.06;100938.22;5056717;28;20056;-78
2022/09/05 10:55:12;;;;;;;5.60;3.63;;;;;;;24.27;52.93;100933.53;5055146;28;20415;-78
2022/09/05 10:57:57;;;;;;;5.50;4.05;;;;;;;24.24;52.41;100927.56;5055277;28;20049;-78
2022/09/05 11:01:00;;;;;;;5.35;3.22;;;;;;;24.33;50.14;100932.06;5055476;28;20135;-78
2022/09/05 11:03:53;;;;;;;6.00;3.63;;;;;;;24.46;49.73;100915.22;5054509;28;20514;-79
2022/09/05 11:06:35;;;;;;;8.25;3.58;;;;;;;24.39;50.60;100909.56;5055438;28;20446;-78
2022/09/05 11:09:11;;;;;;;5.32;3.80;;;;;;;24.49;49.45;100913.00;5056909;28;20040;-78
2022/09/05 11:11:47;;;;;;;6.35;3.60;;;;;;;24.69;48.24;100910.81;5055075;28;20507;-79
2022/09/05 11:14:34;;;;;;;7.60;3.80;;;;;;;24.90;47.19;100909.47;5054927;28;20507;-78
2022/09/05 11:17:12;;;;;;;6.95;3.75;;;;;;;24.96;47.15;100901.47;5055084;28;20404;-78
2022/09/05 11:19:44;;;;;;;6.13;3.30;;;;;;;24.99;47.39;100906.59;5055898;28;20480;-78
2022/09/05 11:22:14;;;;;;;7.20;4.00;;;;;;;25.00;46.36;100902.88;5054932;28;20084;-78
2022/09/05 11:24:55;;;;;;;7.95;4.00;;;;;;;24.94;46.90;100909.00;5054600;28;20107;-78
2022/09/05 11:27:29;;;;;;;;;;;;;;;25.04;46.35;100904.25;5056484;28;20092;-78
2022/09/05 11:30:06;;;;;;;4.90;3.53;;;;;;;24.96;46.92;100901.47;5055772;28;19921;-78
2022/09/05 11:33:04;;;;;;;5.45;3.35;;;;;;;25.22;46.46;100895.03;5054587;28;20189;-78
2022/09/05 11:35:55;;;;;;;7.28;3.35;;;;;;;25.33;46.21;100897.41;5054880;28;20114;-78
2022/09/05 11:39:08;;;;;;;8.77;3.65;;;;;;;25.41;45.98;100886.47;5055765;28;20041;-78
2022/09/05 11:42:29;;;;;;;7.65;3.50;;;;;;;25.45;46.51;100890.56;5054813;28;20384;-78
2022/09/05 11:45:42;;;;;;;6.55;3.70;;;;;;;25.47;45.71;100883.03;5052912;28;20057;-78
2022/09/05 11:48:41;;;;;;;5.60;3.70;;;;;;;25.57;45.43;100889.16;5054098;28;20057;-78
2022/09/05 11:51:57;;;;;;;6.78;4.28;;;;;;;25.52;45.14;100886.13;5055489;28;20037;-78
2022/09/05 11:54:58;;;;;;;6.72;3.80;;;;;;;25.52;45.22;100877.91;5055635;28;20156;-77
2022/09/05 11:57:44;;;;;;;6.35;3.60;;;;;;;25.57;45.77;100878.22;5038061;28;20135;-77
2022/09/05 12:00:19;;;;;;;7.05;3.88;;;;;;;25.34;45.25;100883.56;5053986;28;20098;-78
2022/09/05 12:03:37;;;;;;;6.22;3.33;;;;;;;25.31;46.48;100877.63;5054261;28;20045;-77
2022/09/05 12:07:10;;;;;;;6.65;3.45;;;;;;;25.47;47.08;100876.72;5055482;28;20036;-78
2022/09/05 12:10:17;;;;;;;7.68;3.72;;;;;;;25.65;45.27;100875.47;5013133;28;20080;-77
2022/09/05 12:13:19;;;;;;;5.47;3.55;;;;;;;25.72;45.09;100875.69;5053688;28;20132;-78
2022/09/05 12:15:53;;;;;;;7.03;3.60;;;;;;;25.76;44.92;100876.16;5053660;28;20057;-78
2022/09/05 12:18:44;;;;;;;5.18;3.30;;;;;;;25.61;44.90;100873.28;5054602;28;20053;-78
2022/09/05 12:21:28;;;;;;;4.93;3.50;;;;;;;25.51;45.66;100868.03;5053586;28;20404;-78
2022/09/05 12:24:07;;;;;;;4.85;3.13;;;;;;;25.32;45.73;100863.78;5055072;28;20041;-77
2022/09/05 12:27:03;;;;;;;5.60;3.60;;;;;;;25.20;44.76;100864.34;5054346;28;20098;-78
2022/09/05 12:29:58;;;;;;;5.80;3.70;;;;;;;24.91;46.50;100864.81;5054433;28;20483;-77
2022/09/05 12:32:30;;;;;;;5.18;3.42;;;;;;;24.70;46.03;100868.88;5053714;28;20051;-77
2022/09/05 12:35:35;;;;;;;6.50;3.45;;;;;;;24.77;45.78;100849.97;5053468;28;20511;-77
2022/09/05 12:38:34;;;;;;;7.80;3.60;;;;;;;24.79;45.76;100856.09;5053762;28;20041;-77
2022/09/05 12:41:27;;;;;;;6.78;3.60;;;;;;;24.71;45.95;100856.13;5054708;28;20045;-77
2022/09/05 12:44:32;;;;;;;7.60;3.70;;;;;;;24.63;46.00;100856.13;5054279;28;20049;-77
2022/09/05 12:47:13;;;;;;;7.68;3.58;;;;;;;24.57;47.23;100854.03;5052712;28;20547;-76
2022/09/05 12:49:58;;;;;;;6.43;3.53;;;;;;;24.56;47.94;100855.91;5054141;28;20095;-77
2022/09/05 12:52:41;;;;;;;5.47;3.63;;;;;;;24.57;47.63;100848.59;5052808;28;20064;-77
2022/09/05 12:55:19;;;;;;;6.15;3.60;;;;;;;24.44;47.55;100852.69;5052830;28;20052;-77